Time;durP1;ratioP1;P1;durP2;ratioP2;P2;SDS_P1;SDS_P2;PMS_P1;PMS_P2;Temp;Humidity;BMP_temperature;BMP_pressure;BME280_temperature;BME280_humidity;BME280_pressure;Samples;Min_cycle;Max_cycle;Signal;HPM_P1;HPM_P2
2023/11/12 00:01:53;;;;;;;;;;;;;;;11.19;56.71;99669.59;4977929;27;114784;-69
2023/11/12 00:04:19;;;;;;;;;;;;;;;11.19;56.54;99675.00;4969009;27;107182;-64
2023/11/12 00:06:45;;;;;;;;;;;;;;;11.18;56.60;99679.59;4981654;27;100652;-69
2023/11/12 00:09:11;;;;;;;;;;;;;;;11.17;56.75;99675.31;4983520;27;98971;-69
2023/11/12 00:11:40;;;;;;;;;;;;;;;11.18;56.30;99676.09;4983162;27;98190;-69
2023/11/12 00:14:06;;;;;;;;;;;;;;;11.18;56.41;99670.72;4971671;27;98241;-67
2023/11/12 00:16:33;;;;;;;;;;;;;;;11.19;56.45;99677.69;4979808;27;98852;-64
2023/11/12 00:18:59;;;;;;;;;;;;;;;11.18;56.67;99674.19;4980045;27;99137;-69
2023/11/12 00:21:25;;;;;;;;;;;;;;;11.18;56.74;99681.50;4976035;27;119050;-64
2023/11/12 00:23:52;;;;;;;;;;;;;;;11.17;56.59;99675.31;4965490;27;99597;-64
2023/11/12 00:26:18;;;;;;;;;;;;;;;11.18;56.52;99676.09;4967873;27;100009;-69
2023/11/12 00:28:47;;;;;;;;;;;;;;;11.17;56.58;99680.69;4961652;27;98028;-69
2023/11/12 00:31:13;;;;;;;;;;;;;;;11.18;56.40;99678.81;4981990;27;98072;-69
2023/11/12 00:33:39;;;;;;;;;;;;;;;11.18;56.62;99673.41;4968576;27;98161;-70
2023/11/12 00:36:05;;;;;;;;;;;;;;;11.17;56.64;99672.59;4977979;27;98160;-69
2023/11/12 00:38:31;;;;;;;;;;;;;;;11.17;56.55;99675.31;4989475;27;112019;-69
2023/11/12 00:40:57;;;;;;;;;;;;;;;11.18;56.54;99676.09;4978324;27;98044;-69
2023/11/12 00:43:27;;;;;;;;;;;;;;;11.17;56.57;99678.00;4980549;27;98063;-69
2023/11/12 00:45:58;;;;;;;;;;;;;;;11.17;56.56;99675.31;4965402;27;98477;-69
2023/11/12 00:48:24;;;;;;;;;;;;;;;11.16;56.28;99675.56;4966596;27;98062;-69
2023/11/12 00:50:49;;;;;;;;;;;;;;;11.16;56.53;99681.81;4979475;27;128246;-64
2023/11/12 00:53:15;;;;;;;;;;;;;;;11.16;56.54;99675.56;4976775;27;115819;-69
2023/11/12 00:55:41;;;;;;;;;;;;;;;11.16;56.28;99679.09;4960396;27;130136;-64
2023/11/12 00:58:07;;;;;;;;;;;;;;;11.16;56.68;99681.81;4970535;27;98355;-69
2023/11/12 01:00:33;;;;;;;;;;;;;;;11.16;56.65;99676.41;4968299;27;111025;-69
2023/11/12 01:02:59;;;;;;;;;;;;;;;11.15;56.42;99674.78;4963090;27;98107;-67
2023/11/12 01:05:26;;;;;;;;;;;;;;;11.15;56.54;99677.47;4972265;27;115146;-69
2023/11/12 01:07:55;;;;;;;;;;;;;;;11.16;56.51;99672.88;4990080;27;98836;-69
2023/11/12 01:10:21;;;;;;;;;;;;;;;11.15;56.60;99677.47;4989291;27;99126;-64
2023/11/12 01:12:47;;;;;;;;;;;;;;;11.16;56.48;99676.41;4998842;27;118847;-69
2023/11/12 01:15:17;;;;;;;;;;;;;;;11.14;56.77;99670.47;4970704;27;98981;-64
2023/11/12 01:17:44;;;;;;;;;;;;;;;11.16;56.43;99672.88;4968986;27;100755;-63
2023/11/12 01:20:12;;;;;;;;;;;;;;;11.15;56.52;99676.69;4987516;27;98272;-64
2023/11/12 01:22:38;;;;;;;;;;;;;;;11.16;56.57;99672.88;4984434;27;97929;-69
2023/11/12 01:25:04;;;;;;;;;;;;;;;11.16;56.55;99675.56;4969455;27;98104;-64
2023/11/12 01:27:30;;;;;;;;;;;;;;;11.15;56.55;99685.56;4971822;27;98084;-69
2023/11/12 01:29:56;;;;;;;;;;;;;;;11.15;56.41;99679.38;4972858;27;98182;-68
2023/11/12 01:32:23;;;;;;;;;;;;;;;11.14;56.44;99677.78;4991900;27;118272;-64
2023/11/12 01:34:51;;;;;;;;;;;;;;;11.15;56.58;99685.56;4969235;27;99742;-69
2023/11/12 01:37:17;;;;;;;;;;;;;;;11.14;56.76;99678.56;4969170;27;98757;-69
2023/11/12 01:39:43;;;;;;;;;;;;;;;11.13;56.57;99687.75;4983300;27;119725;-64
2023/11/12 01:42:11;;;;;;;;;;;;;;;11.13;56.49;99676.97;4985844;27;107948;-69
2023/11/12 01:44:38;;;;;;;;;;;;;;;11.13;56.60;99673.47;4997484;27;98344;-64
2023/11/12 01:47:05;;;;;;;;;;;;;;;11.12;56.43;99678.06;4981001;27;99095;-64
2023/11/12 01:49:32;;;;;;;;;;;;;;;11.13;56.53;99674.28;4962715;27;98402;-64
2023/11/12 01:51:58;;;;;;;;;;;;;;;11.13;56.65;99671.59;4965295;27;100246;-69
2023/11/12 01:54:24;;;;;;;;;;;;;;;11.12;56.33;99669.97;4979506;27;128685;-63
2023/11/12 01:56:55;;;;;;;;;;;;;;;11.13;56.52;99665.38;4972777;27;98423;-69
2023/11/12 01:59:21;;;;;;;;;;;;;;;11.12;56.67;99667.28;4964765;27;98835;-64
2023/11/12 02:01:50;;;;;;;;;;;;;;;11.13;56.61;99671.59;4969251;27;98088;-69
2023/11/12 02:04:17;;;;;;;;;;;;;;;11.12;56.71;99661.06;4979080;27;98258;-64
2023/11/12 02:06:43;;;;;;;;;;;;;;;11.13;56.54;99668.09;4970937;27;100086;-64
2023/11/12 02:09:09;;;;;;;;;;;;;;;11.12;56.65;99672.69;4981259;27;103963;-69
2023/11/12 02:11:39;;;;;;;;;;;;;;;11.12;56.57;99669.16;4971180;27;97938;-69
2023/11/12 02:14:09;;;;;;;;;;;;;;;11.13;56.55;99668.09;4971742;27;103257;-64
2023/11/12 02:16:35;;;;;;;;;;;;;;;11.11;56.53;99668.34;4981850;27;102631;-64
2023/11/12 02:19:01;;;;;;;;;;;;;;;11.11;56.48;99676.44;4981478;27;99495;-69
2023/11/12 02:21:32;;;;;;;;;;;;;;;11.12;56.61;99675.38;4970529;27;98203;-64
2023/11/12 02:23:58;;;;;;;;;;;;;;;11.12;56.49;99678.06;4965214;27;98619;-64
2023/11/12 02:26:24;;;;;;;;;;;;;;;11.11;56.62;99675.66;4961831;27;119982;-69
2023/11/12 02:28:50;;;;;;;;;;;;;;;11.12;56.56;99671.84;4970604;27;99527;-64
2023/11/12 02:31:16;;;;;;;;;;;;;;;11.12;56.58;99674.56;4973580;27;99472;-67
2023/11/12 02:33:42;;;;;;;;;;;;;;;11.12;56.53;99677.25;4988432;27;98130;-69
2023/11/12 02:36:09;;;;;;;;;;;;;;;11.12;56.56;99685.34;4967669;27;98432;-64
2023/11/12 02:38:35;;;;;;;;;;;;;;;11.11;56.57;99676.44;4971367;27;101367;-64
2023/11/12 02:41:09;;;;;;;;;;;;;;;11.11;56.47;99679.16;4971383;27;98295;-64
2023/11/12 02:43:36;;;;;;;;;;;;;;;11.11;56.63;99678.34;4974081;27;102573;-64
2023/11/12 02:46:02;;;;;;;;;;;;;;;11.11;56.49;99681.84;4973961;27;98332;-68
2023/11/12 02:48:41;;;;;;;;;;;;;;;11.11;56.56;99679.16;4967673;27;98469;-64
2023/11/12 02:51:06;;;;;;;;;;;;;;;11.11;56.40;99678.34;4982520;27;97811;-69
2023/11/12 02:53:32;;;;;;;;;;;;;;;11.11;56.53;99684.53;4968836;27;125923;-64
2023/11/12 02:55:59;;;;;;;;;;;;;;;11.11;56.39;99679.16;4980978;27;98500;-64
2023/11/12 02:58:25;;;;;;;;;;;;;;;11.11;56.32;99684.53;4982316;27;98211;-64
2023/11/12 03:00:53;;;;;;;;;;;;;;;11.11;56.53;99687.25;4966030;27;98274;-64
2023/11/12 03:03:19;;;;;;;;;;;;;;;11.11;56.49;99683.75;4989042;27;99517;-64
2023/11/12 03:05:45;;;;;;;;;;;;;;;11.10;56.45;99682.94;4964585;27;98151;-69
2023/11/12 03:08:11;;;;;;;;;;;;;;;11.10;56.56;99684.84;4984405;27;98784;-69
2023/11/12 03:10:41;;;;;;;;;;;;;;;11.09;56.44;99686.75;4985296;27;99521;-64
2023/11/12 03:13:08;;;;;;;;;;;;;;;11.10;56.62;99688.34;4978582;27;98507;-68
2023/11/12 03:15:33;;;;;;;;;;;;;;;11.10;56.54;99685.63;4982505;27;98983;-69
2023/11/12 03:18:00;;;;;;;;;;;;;;;11.10;56.53;99685.63;4982753;27;97899;-69
2023/11/12 03:20:26;;;;;;;;;;;;;;;11.10;56.53;99696.44;4966686;27;98874;-69
2023/11/12 03:22:54;;;;;;;;;;;;;;;11.10;56.39;99688.34;4969209;27;119596;-68
2023/11/12 03:25:21;;;;;;;;;;;;;;;11.10;56.51;99685.63;4970650;27;99786;-68
2023/11/12 03:27:47;;;;;;;;;;;;;;;11.11;56.55;99686.44;4965083;27;109108;-63
2023/11/12 03:30:14;;;;;;;;;;;;;;;11.11;56.48;99689.13;4978480;27;99489;-68
2023/11/12 03:32:40;;;;;;;;;;;;;;;11.11;56.39;99683.75;4966417;27;100029;-68
2023/11/12 03:35:06;;;;;;;;;;;;;;;11.10;56.57;99684.84;4968072;27;102740;-63
2023/11/12 03:37:33;;;;;;;;;;;;;;;11.09;56.58;99686.75;4963728;27;99935;-63
2023/11/12 03:39:59;;;;;;;;;;;;;;;11.11;56.53;99694.53;4965890;27;99045;-64
2023/11/12 03:42:25;;;;;;;;;;;;;;;11.09;56.53;99683.25;4963786;27;98341;-64
2023/11/12 03:44:51;;;;;;;;;;;;;;;11.09;56.56;99684.03;4996446;27;97832;-69
2023/11/12 03:47:17;;;;;;;;;;;;;;;11.09;56.44;99678.66;4968042;27;98208;-69
2023/11/12 03:49:43;;;;;;;;;;;;;;;11.08;56.59;99679.72;4970457;27;99313;-64
2023/11/12 03:52:09;;;;;;;;;;;;;;;11.08;56.43;99685.09;4963939;27;99356;-69
2023/11/12 03:54:36;;;;;;;;;;;;;;;11.07;56.32;99691.59;4978756;27;109901;-69
2023/11/12 03:57:03;;;;;;;;;;;;;;;11.07;56.69;99681.63;4967061;27;99509;-69
2023/11/12 03:59:29;;;;;;;;;;;;;;;11.08;56.49;99685.09;4983637;27;97899;-64
2023/11/12 04:01:55;;;;;;;;;;;;;;;11.07;56.66;99684.31;4978119;27;107106;-69
2023/11/12 04:04:21;;;;;;;;;;;;;;;11.07;56.83;99684.31;4976541;27;126164;-64
2023/11/12 04:06:47;;;;;;;;;;;;;;;11.07;56.54;99681.63;4967988;27;126676;-69
2023/11/12 04:09:13;;;;;;;;;;;;;;;11.07;56.40;99672.72;4965297;27;98137;-64
2023/11/12 04:11:40;;;;;;;;;;;;;;;11.06;56.58;99685.41;4968230;27;97951;-69
2023/11/12 04:14:09;;;;;;;;;;;;;;;11.08;56.48;99682.41;4987180;27;98800;-69
2023/11/12 04:16:35;;;;;;;;;;;;;;;11.06;56.46;99682.72;4999878;27;99522;-64
2023/11/12 04:19:02;;;;;;;;;;;;;;;11.07;56.35;99676.22;4973281;27;98355;-64
2023/11/12 04:21:32;;;;;;;;;;;;;;;11.07;56.61;99678.13;4960286;27;98239;-64
2023/11/12 04:23:58;;;;;;;;;;;;;;;11.07;56.57;99676.22;4981373;27;98122;-64
2023/11/12 04:26:25;;;;;;;;;;;;;;;11.06;56.46;99677.31;4960721;27;125940;-63
2023/11/12 04:28:51;;;;;;;;;;;;;;;11.07;56.42;99683.50;4969259;27;98218;-65
2023/11/12 04:31:17;;;;;;;;;;;;;;;11.06;56.68;99688.09;4966210;27;98235;-64
2023/11/12 04:33:43;;;;;;;;;;;;;;;11.07;56.58;99688.91;4985405;27;99981;-64
2023/11/12 04:36:09;;;;;;;;;;;;;;;11.06;56.46;99685.41;4961933;27;98416;-68
2023/11/12 04:38:35;;;;;;;;;;;;;;;11.07;56.75;99687.00;4969110;27;109975;-69
2023/11/12 04:41:02;;;;;;;;;;;;;;;11.07;56.46;99692.41;4984007;27;98354;-68
2023/11/12 04:43:28;;;;;;;;;;;;;;;11.07;56.28;99697.78;4970404;27;97789;-64
2023/11/12 04:45:54;;;;;;;;;;;;;;;11.06;56.68;99690.81;4968418;27;98359;-69
2023/11/12 04:48:20;;;;;;;;;;;;;;;11.06;56.60;99693.50;4963239;27;98195;-69
2023/11/12 04:50:46;;;;;;;;;;;;;;;11.06;56.61;99693.50;4967574;27;97996;-69
2023/11/12 04:53:12;;;;;;;;;;;;;;;11.06;56.45;99695.41;4963546;27;98591;-64
2023/11/12 04:55:38;;;;;;;;;;;;;;;11.07;56.48;99695.09;4980058;27;98729;-69
2023/11/12 04:58:06;;;;;;;;;;;;;;;11.05;56.67;99689.22;4964471;27;118960;-69
2023/11/12 05:00:32;;;;;;;;;;;;;;;11.06;56.57;99693.50;4967705;27;98417;-69
2023/11/12 05:02:58;;;;;;;;;;;;;;;11.06;56.66;99698.09;4987954;27;98275;-69
2023/11/12 05:05:24;;;;;;;;;;;;;;;11.07;56.52;99697.00;4960834;27;99482;-69
2023/11/12 05:07:50;;;;;;;;;;;;;;;11.06;56.44;99703.50;4981567;27;98260;-69
2023/11/12 05:10:16;;;;;;;;;;;;;;;11.06;56.29;99700.78;4958999;27;98916;-64
2023/11/12 05:12:42;;;;;;;;;;;;;;;11.06;56.41;99701.59;4975096;27;98816;-64
2023/11/12 05:15:08;;;;;;;;;;;;;;;11.07;56.51;99705.88;4986076;27;98877;-64
2023/11/12 05:17:36;;;;;;;;;;;;;;;11.08;56.39;99704.00;4983990;27;102655;-69
2023/11/12 05:20:03;;;;;;;;;;;;;;;11.07;56.54;99705.88;4980066;27;98930;-69
2023/11/12 05:22:29;;;;;;;;;;;;;;;11.09;56.65;99707.53;4978191;27;98602;-69
2023/11/12 05:24:55;;;;;;;;;;;;;;;11.07;56.58;99711.28;4969946;27;107591;-64
2023/11/12 05:27:21;;;;;;;;;;;;;;;11.07;56.50;99716.69;4968385;27;99273;-69
2023/11/12 05:29:47;;;;;;;;;;;;;;;11.08;56.51;99717.47;4979062;27;127009;-64
2023/11/12 05:32:13;;;;;;;;;;;;;;;11.09;56.50;99715.59;4966767;27;99619;-64
2023/11/12 05:34:39;;;;;;;;;;;;;;;11.09;56.36;99724.50;4969397;27;98049;-64
2023/11/12 05:37:06;;;;;;;;;;;;;;;11.09;56.73;99718.31;4966289;27;97962;-64
2023/11/12 05:39:32;;;;;;;;;;;;;;;11.09;56.57;99721.81;4987393;27;98646;-64
2023/11/12 05:41:58;;;;;;;;;;;;;;;11.10;56.57;99722.59;4964894;27;99849;-69
2023/11/12 05:44:24;;;;;;;;;;;;;;;11.10;56.69;99723.41;5001803;27;108022;-69
2023/11/12 05:46:50;;;;;;;;;;;;;;;11.10;56.54;99733.38;4979348;27;105813;-69
2023/11/12 05:49:16;;;;;;;;;;;;;;;11.11;56.59;99729.59;4982516;27;127688;-64
2023/11/12 05:51:42;;;;;;;;;;;;;;;11.10;56.43;99734.19;4998624;27;98654;-69
2023/11/12 05:54:08;;;;;;;;;;;;;;;11.11;56.48;99729.59;4963000;27;116392;-64
2023/11/12 05:56:34;;;;;;;;;;;;;;;11.11;56.53;99735.00;4973597;27;98422;-69
2023/11/12 05:59:00;;;;;;;;;;;;;;;11.10;56.37;99734.19;4973238;27;99665;-69
2023/11/12 06:01:26;;;;;;;;;;;;;;;11.12;56.60;99733.88;4973687;27;100144;-69
2023/11/12 06:03:52;;;;;;;;;;;;;;;11.12;56.53;99737.41;4995615;27;99259;-64
2023/11/12 06:06:19;;;;;;;;;;;;;;;11.12;56.39;99736.59;4971703;27;99455;-69
2023/11/12 06:08:45;;;;;;;;;;;;;;;11.11;56.57;99741.19;4972880;27;98258;-69
2023/11/12 06:11:11;;;;;;;;;;;;;;;11.12;56.54;99742.81;4982314;27;98224;-69
2023/11/12 06:13:38;;;;;;;;;;;;;;;11.12;56.51;99748.19;4970233;27;126423;-64
2023/11/12 06:16:04;;;;;;;;;;;;;;;11.13;56.60;99743.59;4971374;27;98190;-64
2023/11/12 06:18:31;;;;;;;;;;;;;;;11.12;56.47;99748.19;4963642;27;99853;-69
2023/11/12 06:20:59;;;;;;;;;;;;;;;11.13;56.65;99749.81;4971408;27;97954;-68
2023/11/12 06:23:25;;;;;;;;;;;;;;;11.14;56.56;99750.59;4972044;27;98844;-64
2023/11/12 06:25:51;;;;;;;;;;;;;;;11.15;56.45;99752.19;4980192;27;98301;-68
2023/11/12 06:28:17;;;;;;;;;;;;;;;11.14;56.66;99756.78;4971120;27;116248;-69
2023/11/12 06:30:44;;;;;;;;;;;;;;;11.15;56.52;99763.78;4985593;27;99497;-64
2023/11/12 06:33:10;;;;;;;;;;;;;;;11.16;56.52;99760.03;4964689;27;98022;-69
2023/11/12 06:35:36;;;;;;;;;;;;;;;11.15;56.42;99763.78;4973119;27;97952;-68
2023/11/12 06:38:02;;;;;;;;;;;;;;;11.15;56.49;99765.69;4983161;27;124924;-64
2023/11/12 06:40:28;;;;;;;;;;;;;;;11.17;56.45;99764.31;4992251;27;104978;-69
2023/11/12 06:42:54;;;;;;;;;;;;;;;11.16;56.58;99773.50;4982697;27;99029;-64
2023/11/12 06:45:20;;;;;;;;;;;;;;;11.17;56.57;99769.72;4970275;27;98022;-69
2023/11/12 06:47:47;;;;;;;;;;;;;;;11.18;56.56;99782.09;4967346;27;98047;-69
2023/11/12 06:50:13;;;;;;;;;;;;;;;11.18;56.54;99778.59;4977239;27;99350;-69
2023/11/12 06:52:39;;;;;;;;;;;;;;;11.19;56.49;99785.59;4966956;27;103712;-64
2023/11/12 06:55:05;;;;;;;;;;;;;;;11.19;56.46;99796.38;4970350;27;98121;-68
2023/11/12 06:57:33;;;;;;;;;;;;;;;11.19;56.42;99783.69;4965219;27;100592;-64
2023/11/12 06:59:59;;;;;;;;;;;;;;;11.20;56.50;99793.44;4967165;27;97904;-64
2023/11/12 07:02:25;;;;;;;;;;;;;;;11.21;56.40;99788.84;4978398;27;97975;-69
2023/11/12 07:04:51;;;;;;;;;;;;;;;11.21;56.47;99795.03;4968300;27;99302;-64
2023/11/12 07:07:17;;;;;;;;;;;;;;;11.21;56.26;99797.72;4984463;27;98589;-69
2023/11/12 07:09:45;;;;;;;;;;;;;;;11.22;56.64;99791.22;4980925;27;99293;-69
2023/11/12 07:12:13;;;;;;;;;;;;;;;11.23;56.39;99800.13;4970624;27;97956;-64
2023/11/12 07:14:39;;;;;;;;;;;;;;;11.25;56.40;99803.34;4981479;27;99917;-64
2023/11/12 07:17:06;;;;;;;;;;;;;;;11.28;56.37;99802.78;4982228;27;98507;-63
2023/11/12 07:19:32;;;;;;;;;;;;;;;11.33;56.34;99794.63;4972482;27;97951;-64
2023/11/12 07:21:59;;;;;;;;;;;;;;;11.40;56.28;99795.06;4970360;27;98118;-64
2023/11/12 07:24:24;;;;;;;;;;;;;;;11.41;56.35;99799.38;4979330;27;98955;-68
2023/11/12 07:26:50;;;;;;;;;;;;;;;11.41;56.35;99807.47;4981252;27;119226;-69
2023/11/12 07:29:17;;;;;;;;;;;;;;;11.43;56.48;99807.16;4972487;27;99864;-65
2023/11/12 07:31:43;;;;;;;;;;;;;;;11.44;56.41;99803.41;4970959;27;99836;-64
2023/11/12 07:34:09;;;;;;;;;;;;;;;11.47;56.17;99810.91;4978778;27;98093;-63
2023/11/12 07:36:36;;;;;;;;;;;;;;;11.51;56.38;99810.06;4978310;27;98538;-68
2023/11/12 07:39:03;;;;;;;;;;;;;;;11.58;56.12;99809.69;4992452;27;98376;-64
2023/11/12 07:41:33;;;;;;;;;;;;;;;11.64;56.17;99813.13;4980596;27;101267;-63
2023/11/12 07:43:59;;;;;;;;;;;;;;;11.71;55.75;99811.69;4962636;27;98700;-64
2023/11/12 07:46:25;;;;;;;;;;;;;;;11.80;56.26;99809.13;4993811;27;123350;-63
2023/11/12 07:48:51;;;;;;;;;;;;;;;11.82;56.05;99806.13;4964844;27;98065;-69
2023/11/12 07:51:17;;;;;;;;;;;;;;;11.81;56.16;99821.53;4965719;27;101957;-63
2023/11/12 07:53:43;;;;;;;;;;;;;;;11.82;56.02;99804.22;4959206;27;98566;-68
2023/11/12 07:56:10;;;;;;;;;;;;;;;11.83;55.85;99808.59;4963562;27;110329;-63
2023/11/12 07:58:36;;;;;;;;;;;;;;;11.83;56.29;99810.44;4990450;27;98062;-68
2023/11/12 08:01:03;;;;;;;;;;;;;;;11.85;56.06;99808.28;4963701;27;98233;-63
2023/11/12 08:03:29;;;;;;;;;;;;;;;11.95;55.88;99800.84;4960815;27;98783;-63
2023/11/12 08:05:55;;;;;;;;;;;;;;;11.99;55.77;99809.97;4972279;27;105130;-63
2023/11/12 08:08:23;;;;;;;;;;;;;;;12.04;56.05;99817.19;4962515;27;99148;-68
2023/11/12 08:10:49;;;;;;;;;;;;;;;12.09;55.81;99816.31;4964807;27;98228;-63
2023/11/12 08:13:15;;;;;;;;;;;;;;;12.11;55.85;99814.13;4963174;27;98098;-68
2023/11/12 08:15:41;;;;;;;;;;;;;;;12.16;56.11;99816.75;4971857;27;99908;-69
2023/11/12 08:18:07;;;;;;;;;;;;;;;12.23;55.92;99814.50;4975371;27;98341;-69
2023/11/12 08:20:34;;;;;;;;;;;;;;;12.22;55.64;99815.56;4960551;27;120188;-68
2023/11/12 08:23:00;;;;;;;;;;;;;;;12.20;56.08;99820.47;4963222;27;98266;-68
2023/11/12 08:25:26;;;;;;;;;;;;;;;12.22;56.06;99818.28;4976864;27;98293;-63
2023/11/12 08:27:52;;;;;;;;;;;;;;;12.30;55.67;99820.34;4963463;27;98220;-68
2023/11/12 08:30:18;;;;;;;;;;;;;;;12.42;55.54;99819.88;4972208;27;98617;-68
2023/11/12 08:32:45;;;;;;;;;;;;;;;12.57;55.67;99824.22;4977640;27;100159;-68
2023/11/12 08:35:11;;;;;;;;;;;;;;;12.68;55.77;99829.16;4976241;27;98391;-63
2023/11/12 08:37:37;;;;;;;;;;;;;;;12.75;55.43;99826.06;4976839;27;128155;-68
2023/11/12 08:40:04;;;;;;;;;;;;;;;12.82;55.64;99826.50;4967173;27;98932;-68
2023/11/12 08:42:30;;;;;;;;;;;;;;;12.96;55.24;99829.22;4979033;27;98256;-63
2023/11/12 08:44:56;;;;;;;;;;;;;;;13.00;55.62;99831.03;4978906;27;98414;-68
2023/11/12 08:47:23;;;;;;;;;;;;;;;13.10;55.17;99827.34;4968055;27;98472;-63
2023/11/12 08:49:48;;;;;;;;;;;;;;;13.10;55.28;99832.75;4977242;27;98816;-63
2023/11/12 08:52:14;;;;;;;;;;;;;;;13.18;55.30;99829.34;4960520;27;122271;-68
2023/11/12 08:54:41;;;;;;;;;;;;;;;13.27;55.53;99824.88;4980955;27;118255;-64
2023/11/12 08:57:09;;;;;;;;;;;;;;;13.37;55.30;99833.91;4977077;27;98480;-63
2023/11/12 08:59:37;;;;;;;;;;;;;;;13.44;55.15;99835.13;4978807;27;100449;-69
2023/11/12 09:02:06;;;;;;;;;;;;;;;13.48;55.42;99832.59;4981089;27;99200;-69
2023/11/12 09:04:33;;;;;;;;;;;;;;;13.54;55.06;99836.78;4974665;27;99065;-68
2023/11/12 09:06:59;;;;;;;;;;;;;;;13.62;55.08;99836.09;4089033;27;10000892;-64
2023/11/12 09:09:25;;;;;;;;;;;;;;;13.79;55.23;99840.06;4074375;27;10001373;-69
2023/11/12 09:11:51;;;;;;;;;;;;;;;14.06;54.85;99842.72;4095234;27;10000465;-68
2023/11/12 09:14:18;;;;;;;;;;;;;;;14.17;54.91;99846.81;4975798;27;98494;-64
2023/11/12 09:16:46;;;;;;;;;;;;;;;14.07;55.14;99851.66;4079866;27;10000780;-64
2023/11/12 09:19:12;;;;;;;;;;;;;;;13.95;55.56;99844.88;4979833;27;99220;-69
2023/11/12 09:21:38;;;;;;;;;;;;;;;13.88;55.18;99851.81;4992049;27;98156;-64
2023/11/12 09:24:05;;;;;;;;;;;;;;;13.83;55.30;99851.91;4980895;27;98068;-64
2023/11/12 09:26:31;;;;;;;;;;;;;;;13.83;55.76;99858.13;4974276;27;106747;-69
2023/11/12 09:28:57;;;;;;;;;;;;;;;13.86;55.31;99846.69;4982871;27;128866;-68
2023/11/12 09:31:24;;;;;;;;;;;;;;;14.03;55.48;99847.94;4966878;27;98278;-64
2023/11/12 09:33:50;;;;;;;;;;;;;;;14.14;55.10;99852.84;4975461;27;98025;-68
2023/11/12 09:36:17;;;;;;;;;;;;;;;14.45;54.57;99847.50;4979711;27;126533;-69
2023/11/12 09:38:43;;;;;;;;;;;;;;;14.77;54.48;99851.09;4963666;27;98274;-65
2023/11/12 09:41:09;;;;;;;;;;;;;;;14.85;54.54;99850.34;4979113;27;99582;-64
2023/11/12 09:43:35;;;;;;;;;;;;;;;14.88;54.74;99848.94;4961901;27;98220;-69
2023/11/12 09:46:08;;;;;;;;;;;;;;;15.01;54.54;99845.34;4966384;27;100263;-67
2023/11/12 09:48:39;;;;;;;;;;;;;;;15.09;54.61;99849.22;4959895;27;101120;-69
2023/11/12 09:51:05;;;;;;;;;;;;;;;15.10;54.81;99848.13;4967306;27;98429;-64
2023/11/12 09:53:42;;;;;;;;;;;;;;;15.10;54.97;99851.63;4979617;27;98205;-64
2023/11/12 09:56:08;;;;;;;;;;;;;;;15.08;54.98;99844.91;4960646;27;99537;-69
2023/11/12 09:58:38;;;;;;;;;;;;;;;15.03;55.14;99851.25;4092734;27;10000232;-69
2023/11/12 10:01:08;;;;;;;;;;;;;;;14.98;55.06;99851.41;4992030;27;120372;-69
2023/11/12 10:03:35;;;;;;;;;;;;;;;14.94;55.35;99855.84;4976343;27;98176;-69
2023/11/12 10:06:04;;;;;;;;;;;;;;;14.93;55.30;99846.09;4072065;27;10000269;-69
2023/11/12 10:08:34;;;;;;;;;;;;;;;14.99;55.16;99850.28;4966291;27;98306;-64
2023/11/12 10:11:21;;;;;;;;;;;;;;;15.03;55.07;99850.47;4088757;27;10000379;-65
2023/11/12 10:13:47;;;;;;;;;;;;;;;15.04;55.17;99857.50;4078945;27;10000399;-64
2023/11/12 10:16:29;;;;;;;;;;;;;;;15.15;54.94;99856.91;4975016;27;98919;-68
2023/11/12 10:19:15;;;;;;;;;;;;;;;15.23;54.98;99853.44;4942429;27;98038;-69
2023/11/12 10:21:55;;;;;;;;;;;;;;;15.26;54.98;99857.44;4095441;27;10001090;-64
2023/11/12 10:24:24;;;;;;;;;;;;;;;15.25;55.16;99864.00;4977486;27;98460;-64
2023/11/12 10:26:52;;;;;;;;;;;;;;;15.25;55.09;99860.47;4966904;27;110125;-69
2023/11/12 10:29:21;;;;;;;;;;;;;;;15.26;55.20;99860.16;4963509;27;98909;-63
2023/11/12 10:31:50;;;;;;;;;;;;;;;15.28;55.19;99863.34;4945015;27;98058;-64
2023/11/12 10:34:17;;;;;;;;;;;;;;;15.34;54.93;99870.25;4967985;27;100097;-69
2023/11/12 10:37:09;;;;;;;;;;;;;;;15.38;55.08;99865.00;4947881;27;98194;-64
2023/11/12 10:39:35;;;;;;;;;;;;;;;15.39;54.98;99872.03;4077401;27;10000640;-68
2023/11/12 10:42:01;;;;;;;;;;;;;;;15.40;55.07;99874.41;4977623;27;98324;-64
2023/11/12 10:44:28;;;;;;;;;;;;;;;15.41;54.95;99870.63;4966132;27;98270;-64
2023/11/12 10:46:55;;;;;;;;;;;;;;;15.37;55.19;99868.84;4963106;27;98449;-64
2023/11/12 10:49:22;;;;;;;;;;;;;;;15.32;55.34;99874.38;4954263;27;100189;-64
2023/11/12 10:51:48;;;;;;;;;;;;;;;15.26;55.54;99870.22;4982285;27;98104;-69
2023/11/12 10:54:14;;;;;;;;;;;;;;;15.18;55.38;99871.78;4960915;27;120823;-64
2023/11/12 10:56:40;;;;;;;;;;;;;;;15.11;55.64;99872.22;4959378;27;98483;-64
2023/11/12 10:59:08;;;;;;;;;;;;;;;15.04;55.64;99876.50;4964888;27;98397;-69
2023/11/12 11:01:34;;;;;;;;;;;;;;;14.97;55.59;99872.31;4964857;27;98650;-69
2023/11/12 11:04:00;;;;;;;;;;;;;;;14.92;55.79;99879.78;4967819;27;108830;-64
2023/11/12 11:06:26;;;;;;;;;;;;;;;14.83;55.78;99878.94;4969408;27;121929;-69
2023/11/12 11:08:53;;;;;;;;;;;;;;;14.75;56.19;99880.47;4963264;27;98384;-64
2023/11/12 11:11:21;;;;;;;;;;;;;;;14.67;55.91;99889.34;4996063;27;98352;-64
2023/11/12 11:13:48;;;;;;;;;;;;;;;14.59;55.83;99881.97;4978534;27;98286;-69
2023/11/12 11:16:47;;;;;;;;;;;;;;;14.55;56.03;99887.19;4980697;27;98658;-69
2023/11/12 11:19:13;;;;;;;;;;;;;;;14.50;56.01;99887.28;4996608;27;99214;-69
2023/11/12 11:21:39;;;;;;;;;;;;;;;14.44;56.03;99892.00;4975856;27;99193;-69
2023/11/12 11:24:05;;;;;;;;;;;;;;;14.43;56.19;99886.91;4964607;27;116243;-69
2023/11/12 11:26:38;;;;;;;;;;;;;;;14.42;55.92;99886.13;4977741;27;105456;-64
2023/11/12 11:29:04;;;;;;;;;;;;;;;14.41;55.85;99884.50;4981051;27;98217;-64
2023/11/12 11:31:38;;;;;;;;;;;;;;;14.41;56.18;99886.41;4999540;27;98116;-64
2023/11/12 11:34:04;;;;;;;;;;;;;;;14.41;55.73;99891.81;4984059;27;98430;-64
2023/11/12 11:36:31;;;;;;;;;;;;;;;14.42;56.09;99888.81;4985320;27;100017;-64
2023/11/12 11:39:08;;;;;;;;;;;;;;;14.47;55.75;99879.75;4964996;27;99065;-64
2023/11/12 11:41:34;;;;;;;;;;;;;;;14.58;55.63;99880.34;4991646;27;98254;-64
2023/11/12 11:44:32;;;;;;;;;;;;;;;14.65;55.61;99876.09;4961951;27;103682;-63
2023/11/12 11:47:12;;;;;;;;;;;;;;;14.78;55.58;99874.44;4990368;27;98339;-69
2023/11/12 11:49:39;;;;;;;;;;;;;;;14.91;55.30;99875.47;4993133;27;98644;-69
2023/11/12 11:52:07;;;;;;;;;;;;;;;15.05;55.08;99875.38;4964405;27;99332;-69
2023/11/12 11:54:33;;;;;;;;;;;;;;;15.27;55.00;99871.81;4967000;27;98583;-64
2023/11/12 11:57:04;;;;;;;;;;;;;;;15.43;54.72;99876.50;4958423;27;99844;-69
2023/11/12 11:59:36;;;;;;;;;;;;;;;15.46;54.93;99870.47;4960449;27;98331;-64
2023/11/12 12:02:04;;;;;;;;;;;;;;;15.52;55.01;99878.47;4969026;27;99473;-64
2023/11/12 12:04:30;;;;;;;;;;;;;;;15.57;54.85;99873.69;4964952;27;98379;-69
2023/11/12 12:06:56;;;;;;;;;;;;;;;15.62;54.92;99873.56;4965998;27;98743;-69
2023/11/12 12:09:23;;;;;;;;;;;;;;;15.65;54.89;99867.53;4976179;27;126904;-64
2023/11/12 12:11:53;;;;;;;;;;;;;;;15.73;54.89;99873.31;4955885;27;98514;-64
2023/11/12 12:14:21;;;;;;;;;;;;;;;15.83;54.83;99881.16;4981751;27;98111;-64
2023/11/12 12:16:47;;;;;;;;;;;;;;;15.84;54.93;99875.41;4974046;27;98547;-67
2023/11/12 12:19:21;;;;;;;;;;;;;;;15.79;55.04;99883.69;4964923;27;98550;-69
2023/11/12 12:21:48;;;;;;;;;;;;;;;15.70;55.12;99889.09;4975107;27;99376;-69
2023/11/12 12:24:16;;;;;;;;;;;;;;;15.66;55.21;99885.41;4957205;27;98144;-68
2023/11/12 12:26:42;;;;;;;;;;;;;;;15.68;55.16;99885.13;4964137;27;98261;-68
2023/11/12 12:29:15;;;;;;;;;;;;;;;15.64;55.37;99878.66;4975148;27;99035;-68
2023/11/12 12:31:44;;;;;;;;;;;;;;;15.58;55.27;99890.81;4963845;27;98832;-64
2023/11/12 12:34:11;;;;;;;;;;;;;;;15.53;55.47;99890.94;4960526;27;98236;-64
2023/11/12 12:36:36;;;;;;;;;;;;;;;15.51;55.32;99893.16;4974361;27;98639;-64
2023/11/12 12:39:06;;;;;;;;;;;;;;;15.45;55.58;99887.88;4961707;27;100870;-64
2023/11/12 12:41:32;;;;;;;;;;;;;;;15.38;55.67;99886.72;4084610;27;10000466;-69
2023/11/12 12:44:00;;;;;;;;;;;;;;;15.30;55.50;99892.91;4961650;27;98174;-64